createdAt,value
2018-04-07T00:00:03.103Z,96593.53
2018-04-07T00:02:30.609Z,96589.03
2018-04-07T00:04:58.131Z,96588.02
2018-04-07T00:07:25.716Z,96595.19
2018-04-07T00:09:53.277Z,96595.20
2018-04-07T00:12:20.838Z,96590.02
2018-04-07T00:14:48.391Z,96592.73
2018-04-07T00:17:16.063Z,96590.98
2018-04-07T00:19:43.668Z,96594.80
2018-04-07T00:22:11.225Z,96594.23
2018-04-07T00:24:38.796Z,96590.27
2018-04-07T00:27:06.562Z,96586.96
2018-04-07T00:29:34.111Z,96586.78
2018-04-07T00:32:01.737Z,96593.27
2018-04-07T00:34:29.365Z,96581.95
2018-04-07T00:36:56.954Z,96578.55
2018-04-07T00:39:24.560Z,96579.63
2018-04-07T00:41:52.105Z,96567.22
2018-04-07T00:44:19.669Z,96571.89
2018-04-07T00:46:47.220Z,96573.94
2018-04-07T00:49:14.757Z,96565.75
2018-04-07T00:51:42.343Z,96565.81
2018-04-07T00:54:10.059Z,96570.91
2018-04-07T00:56:37.609Z,96570.92
2018-04-07T00:59:06.041Z,96565.89
2018-04-07T01:01:33.589Z,96564.33
2018-04-07T01:04:01.129Z,96567.36
2018-04-07T01:06:28.718Z,96559.11
2018-04-07T01:08:56.269Z,96564.66
2018-04-07T01:11:23.837Z,96548.47
2018-04-07T01:13:51.411Z,96550.63
2018-04-07T01:16:18.989Z,96546.23
2018-04-07T01:18:46.538Z,96545.67
2018-04-07T01:21:14.109Z,96533.62
2018-04-07T01:23:41.656Z,96533.98
2018-04-07T01:26:09.143Z,96535.69
2018-04-07T01:28:36.620Z,96526.89
2018-04-07T01:31:04.112Z,96529.86
2018-04-07T01:33:31.626Z,96534.91
2018-04-07T01:35:59.123Z,96536.59
2018-04-07T01:38:26.594Z,96534.99
2018-04-07T01:40:54.107Z,96534.33
2018-04-07T01:43:21.633Z,96527.98
2018-04-07T01:45:49.170Z,96529.44
2018-04-07T01:48:16.688Z,96531.61
2018-04-07T01:50:44.247Z,96527.05
2018-04-07T01:53:11.778Z,96528.33
2018-04-07T01:55:39.272Z,96522.06
2018-04-07T01:58:06.770Z,96523.98
2018-04-07T02:00:34.294Z,96520.80
2018-04-07T02:03:01.842Z,96516.13
2018-04-07T02:05:29.355Z,96510.64
2018-04-07T02:07:56.895Z,96505.53
2018-04-07T02:10:24.428Z,96499.45
2018-04-07T02:12:51.932Z,96499.83
2018-04-07T02:15:19.412Z,96495.14
2018-04-07T02:17:46.920Z,96502.23
2018-04-07T02:20:14.408Z,96495.55
2018-04-07T02:22:41.921Z,96490.81
2018-04-07T02:25:09.415Z,96488.34
2018-04-07T02:27:36.962Z,96487.97
2018-04-07T02:30:04.907Z,96492.43
2018-04-07T02:32:32.787Z,96485.74
2018-04-07T02:35:00.705Z,96479.80
2018-04-07T02:37:28.239Z,96474.09
2018-04-07T02:39:55.791Z,96473.98
2018-04-07T02:42:23.334Z,96477.77
2018-04-07T02:44:50.875Z,96474.52
2018-04-07T02:47:18.403Z,96470.36
2018-04-07T02:49:45.972Z,96467.43
2018-04-07T02:52:13.491Z,96466.98
2018-04-07T02:54:41.042Z,96461.59
2018-04-07T02:57:08.613Z,96449.46
2018-04-07T02:59:36.141Z,96454.27
2018-04-07T03:02:03.693Z,96461.91
2018-04-07T03:04:31.266Z,96447.73
2018-04-07T03:06:58.796Z,96454.26
2018-04-07T03:09:26.373Z,96453.00
2018-04-07T03:11:54.088Z,96448.75
2018-04-07T03:14:21.628Z,96447.29
2018-04-07T03:16:49.166Z,96444.34
2018-04-07T03:19:16.710Z,96440.20
2018-04-07T03:21:44.259Z,96438.53
2018-04-07T03:24:11.758Z,96435.28
2018-04-07T03:26:39.238Z,96432.58
2018-04-07T03:29:06.737Z,96429.76
2018-04-07T03:31:34.253Z,96433.27
2018-04-07T03:34:01.761Z,96423.92
2018-04-07T03:36:29.311Z,96427.23
2018-04-07T03:38:56.851Z,96420.90
2018-04-07T03:41:24.402Z,96419.47
2018-04-07T03:43:52.120Z,96410.88
2018-04-07T03:46:19.673Z,96410.77
2018-04-07T03:48:47.209Z,96406.08
2018-04-07T03:51:14.797Z,96410.65
2018-04-07T03:53:42.281Z,96400.33
2018-04-07T03:56:09.818Z,96403.98
2018-04-07T03:58:37.403Z,96398.83
2018-04-07T04:01:04.931Z,96403.80
2018-04-07T04:03:32.812Z,96400.13
2018-04-07T04:06:00.347Z,96399.61
2018-04-07T04:08:27.881Z,96398.70
2018-04-07T04:10:55.408Z,96402.48
2018-04-07T04:13:22.935Z,96393.11
2018-04-07T04:15:50.472Z,96396.52
2018-04-07T04:18:18.005Z,96389.00
2018-04-07T04:20:45.555Z,96384.02
2018-04-07T04:23:13.043Z,96383.81
2018-04-07T04:25:40.547Z,96382.48
2018-04-07T04:28:08.302Z,96389.98
2018-04-07T04:30:35.837Z,96384.58
2018-04-07T04:33:03.341Z,96379.13
2018-04-07T04:35:30.868Z,96380.33
2018-04-07T04:37:58.356Z,96381.05
2018-04-07T04:40:25.831Z,96377.31
2018-04-07T04:42:53.324Z,96381.89
2018-04-07T04:45:20.820Z,96378.34
2018-04-07T04:47:48.323Z,96385.77
2018-04-07T04:50:15.867Z,96384.94
2018-04-07T04:52:43.352Z,96389.34
2018-04-07T04:55:10.845Z,96390.53
2018-04-07T04:57:38.343Z,96389.25
2018-04-07T05:00:07.745Z,96345.86
2018-04-07T05:02:35.250Z,96385.19
2018-04-07T05:05:02.733Z,96384.56
2018-04-07T05:07:30.205Z,96387.03
2018-04-07T05:09:57.725Z,96385.01
2018-04-07T05:12:25.220Z,96386.98
2018-04-07T05:14:52.730Z,96377.73
2018-04-07T05:17:20.270Z,96382.84
2018-04-07T05:19:47.762Z,96378.82
2018-04-07T05:22:15.311Z,96379.94
2018-04-07T05:24:42.863Z,96373.21
2018-04-07T05:27:10.390Z,96376.51
2018-04-07T05:29:37.933Z,96366.78
2018-04-07T05:32:05.443Z,96370.41
2018-04-07T05:34:32.935Z,96363.78
2018-04-07T05:37:00.407Z,96366.35
2018-04-07T05:39:27.921Z,96368.18
2018-04-07T05:41:55.407Z,96360.78
2018-04-07T05:44:22.889Z,96368.03
2018-04-07T05:46:50.417Z,96366.39
2018-04-07T05:49:17.946Z,96361.94
2018-04-07T05:51:45.457Z,96361.73
2018-04-07T05:54:12.961Z,96359.25
2018-04-07T05:56:40.484Z,96364.63
2018-04-07T05:59:08.018Z,96365.56
2018-04-07T06:01:35.558Z,96363.06
2018-04-07T06:04:03.060Z,96356.05
2018-04-07T06:06:30.627Z,96349.66
2018-04-07T06:08:58.142Z,96354.44
2018-04-07T06:11:25.614Z,96351.83
2018-04-07T06:13:53.122Z,96341.01
2018-04-07T06:16:20.592Z,96341.29
2018-04-07T06:18:48.068Z,96341.52
2018-04-07T06:21:15.544Z,96342.19
2018-04-07T06:23:43.027Z,96334.79
2018-04-07T06:26:10.507Z,96333.88
2018-04-07T06:28:37.985Z,96343.40
2018-04-07T06:31:05.504Z,96338.66
2018-04-07T06:33:33.010Z,96340.70
2018-04-07T06:36:00.485Z,96336.27
2018-04-07T06:38:27.989Z,96338.61
2018-04-07T06:40:55.543Z,96334.81
2018-04-07T06:43:23.074Z,96331.92
2018-04-07T06:45:50.559Z,96330.16
2018-04-07T06:48:18.058Z,96334.96
2018-04-07T06:50:45.535Z,96331.53
2018-04-07T06:53:13.024Z,96333.17
2018-04-07T06:55:40.547Z,96329.88
2018-04-07T06:58:08.056Z,96332.40
2018-04-07T07:00:35.607Z,96329.48
2018-04-07T07:03:03.157Z,96328.31
2018-04-07T07:05:30.731Z,96330.25
2018-04-07T07:07:58.249Z,96328.48
2018-04-07T07:10:25.760Z,96329.32
2018-04-07T07:12:53.254Z,96324.14
2018-04-07T07:15:20.766Z,96329.13
2018-04-07T07:17:48.232Z,96323.72
2018-04-07T07:20:15.729Z,96324.01
2018-04-07T07:22:43.297Z,96329.84
2018-04-07T07:25:10.832Z,96325.53
2018-04-07T07:27:38.366Z,96321.38
2018-04-07T07:30:05.860Z,96321.08
2018-04-07T07:32:33.329Z,96324.09
2018-04-07T07:35:00.799Z,96321.72
2018-04-07T07:37:28.292Z,96314.67
2018-04-07T07:39:55.775Z,96309.34
2018-04-07T07:42:23.253Z,96307.76
2018-04-07T07:44:50.752Z,96313.48
2018-04-07T07:47:18.374Z,96306.67
2018-04-07T07:49:45.856Z,96301.16
2018-04-07T07:52:13.378Z,96303.51
2018-04-07T07:54:40.869Z,96297.42
2018-04-07T07:57:08.361Z,96299.82
2018-04-07T07:59:35.884Z,96298.06
2018-04-07T08:02:03.386Z,96298.12
2018-04-07T08:04:30.914Z,96298.53
2018-04-07T08:06:58.434Z,96295.50
2018-04-07T08:09:25.904Z,96305.40
2018-04-07T08:11:53.455Z,96298.13
2018-04-07T08:14:20.969Z,96297.81
2018-04-07T08:16:48.471Z,96291.80
2018-04-07T08:19:15.937Z,96300.36
2018-04-07T08:21:43.437Z,96303.07
2018-04-07T08:24:10.907Z,96306.03
2018-04-07T08:26:38.378Z,96306.38
2018-04-07T08:29:05.924Z,96302.45
2018-04-07T08:31:33.418Z,96318.03
2018-04-07T08:34:00.893Z,96311.45
2018-04-07T08:36:28.416Z,96311.31
2018-04-07T08:38:55.903Z,96312.28
2018-04-07T08:41:23.376Z,96318.30
2018-04-07T08:43:50.891Z,96315.31
2018-04-07T08:46:18.385Z,96310.50
2018-04-07T08:48:45.878Z,96310.94
2018-04-07T08:51:13.418Z,96301.28
2018-04-07T08:53:40.887Z,96299.27
2018-04-07T08:56:08.379Z,96302.02
2018-04-07T08:58:35.858Z,96292.79
2018-04-07T09:01:03.334Z,96300.02
2018-04-07T09:03:30.833Z,96301.67
2018-04-07T09:05:58.333Z,96299.34
2018-04-07T09:08:25.802Z,96311.21
2018-04-07T09:10:53.277Z,96305.55
2018-04-07T09:13:20.787Z,96299.88
2018-04-07T09:15:48.286Z,96303.13
2018-04-07T09:18:15.785Z,96313.90
2018-04-07T09:20:43.285Z,96315.28
2018-04-07T09:23:10.944Z,96305.51
2018-04-07T09:25:38.445Z,96299.95
2018-04-07T09:28:05.941Z,96313.73
2018-04-07T09:30:33.421Z,96308.25
2018-04-07T09:33:00.904Z,96305.20
2018-04-07T09:35:28.374Z,96302.00
2018-04-07T09:37:55.908Z,96304.00
2018-04-07T09:40:23.469Z,96302.58
2018-04-07T09:42:50.974Z,96313.95
2018-04-07T09:45:18.506Z,96304.59
2018-04-07T09:47:46.026Z,96299.50
2018-04-07T09:50:14.741Z,96311.91
2018-04-07T09:52:42.216Z,96300.73
2018-04-07T09:55:09.735Z,96300.30
2018-04-07T09:57:37.217Z,96299.73
2018-04-07T10:00:05.101Z,96268.66
2018-04-07T10:02:36.433Z,96298.41
2018-04-07T10:05:03.922Z,96288.38
2018-04-07T10:07:31.400Z,96293.19
2018-04-07T10:09:58.886Z,96282.92
2018-04-07T10:12:26.425Z,96285.26
2018-04-07T10:14:53.905Z,96282.92
2018-04-07T10:17:21.431Z,96281.61
2018-04-07T10:19:48.946Z,96276.28
2018-04-07T10:22:16.417Z,96268.41
2018-04-07T10:24:43.906Z,96274.31
2018-04-07T10:27:11.407Z,96275.86
2018-04-07T10:29:38.894Z,96281.36
2018-04-07T10:32:06.376Z,96276.53
2018-04-07T10:34:33.927Z,96276.39
2018-04-07T10:37:01.472Z,96272.84
2018-04-07T10:39:29.065Z,96270.09
2018-04-07T10:41:56.569Z,96275.80
2018-04-07T10:44:24.056Z,96270.80
2018-04-07T10:46:51.608Z,96269.48
2018-04-07T10:49:19.174Z,96267.23
2018-04-07T10:51:46.725Z,96262.76
2018-04-07T10:54:14.259Z,96272.59
2018-04-07T10:56:41.826Z,96261.83
2018-04-07T10:59:09.363Z,96251.03
2018-04-07T11:01:36.910Z,96251.27
2018-04-07T11:04:04.466Z,96250.13
2018-04-07T11:06:32.062Z,96249.42
2018-04-07T11:08:59.611Z,96240.44
2018-04-07T11:11:27.163Z,96237.22
2018-04-07T11:13:54.740Z,96237.56
2018-04-07T11:16:22.268Z,96234.73
2018-04-07T11:18:49.867Z,96224.61
2018-04-07T11:21:17.397Z,96228.78
2018-04-07T11:23:44.918Z,96224.64
2018-04-07T11:26:12.494Z,96232.72
2018-04-07T11:28:40.073Z,96225.81
2018-04-07T11:31:07.623Z,96234.03
2018-04-07T11:33:35.186Z,96222.09
2018-04-07T11:36:02.725Z,96220.48
2018-04-07T11:38:30.259Z,96218.62
2018-04-07T11:40:57.760Z,96220.93
2018-04-07T11:43:25.354Z,96214.92
2018-04-07T11:45:52.842Z,96206.09
2018-04-07T11:48:20.362Z,96202.52
2018-04-07T11:50:47.857Z,96203.13
2018-04-07T11:53:15.351Z,96194.33
2018-04-07T11:55:42.860Z,96199.88
2018-04-07T11:58:10.327Z,96196.09
2018-04-07T12:00:37.811Z,96187.77
2018-04-07T12:03:05.318Z,96180.73
2018-04-07T12:05:32.797Z,96191.44
2018-04-07T12:08:00.270Z,96190.71
2018-04-07T12:10:27.765Z,96185.23
2018-04-07T12:12:55.249Z,96192.06
2018-04-07T12:15:22.753Z,96177.34
2018-04-07T12:17:50.264Z,96182.98
2018-04-07T12:20:17.750Z,96181.09
2018-04-07T12:22:45.251Z,96176.28
2018-04-07T12:25:12.750Z,96171.12
2018-04-07T12:27:40.257Z,96174.05
2018-04-07T12:30:07.755Z,96165.64
2018-04-07T12:32:35.262Z,96155.31
2018-04-07T12:35:02.748Z,96157.78
2018-04-07T12:37:30.242Z,96162.63
2018-04-07T12:39:57.743Z,96148.88
2018-04-07T12:42:25.215Z,96154.13
2018-04-07T12:44:52.712Z,96146.27
2018-04-07T12:47:20.222Z,96151.16
2018-04-07T12:49:47.793Z,96146.86
2018-04-07T12:52:15.327Z,96141.51
2018-04-07T12:54:42.854Z,96151.33
2018-04-07T12:57:10.353Z,96153.90
2018-04-07T12:59:37.877Z,96141.06
2018-04-07T13:02:05.405Z,96144.70
2018-04-07T13:04:32.894Z,96145.14
2018-04-07T13:07:00.442Z,96139.09
2018-04-07T13:09:27.969Z,96136.08
2018-04-07T13:11:55.946Z,96137.26
2018-04-07T13:14:23.453Z,96131.95
2018-04-07T13:16:50.935Z,96131.39
2018-04-07T13:19:18.508Z,96140.59
2018-04-07T13:21:46.064Z,96129.55
2018-04-07T13:24:13.647Z,96119.18
2018-04-07T13:26:41.212Z,96130.58
2018-04-07T13:29:08.749Z,96127.16
2018-04-07T13:31:36.306Z,96130.55
2018-04-07T13:34:03.789Z,96126.44
2018-04-07T13:36:31.279Z,96128.55
2018-04-07T13:38:58.801Z,96121.80
2018-04-07T13:41:26.347Z,96116.09
2018-04-07T13:43:53.825Z,96127.81
2018-04-07T13:46:21.309Z,96109.77
2018-04-07T13:48:48.805Z,96115.79
2018-04-07T13:51:16.375Z,96107.29
2018-04-07T13:53:43.896Z,96121.86
2018-04-07T13:56:11.423Z,96114.13
2018-04-07T13:58:38.984Z,96107.34
2018-04-07T14:01:06.539Z,96116.22
2018-04-07T14:03:34.104Z,96116.63
2018-04-07T14:06:01.665Z,96112.78
2018-04-07T14:08:29.464Z,96104.77
2018-04-07T14:10:56.997Z,96107.96
2018-04-07T14:13:24.561Z,96102.91
2018-04-07T14:15:52.088Z,96099.11
2018-04-07T14:18:19.618Z,96102.84
2018-04-07T14:20:47.127Z,96103.55
2018-04-07T14:23:14.651Z,96109.78
2018-04-07T14:25:42.107Z,96109.20
2018-04-07T14:28:09.630Z,96113.13
2018-04-07T14:30:37.121Z,96101.99
2018-04-07T14:33:04.604Z,96100.70
2018-04-07T14:35:32.141Z,96111.05
2018-04-07T14:37:59.642Z,96093.24
2018-04-07T14:40:27.118Z,96107.27
2018-04-07T14:42:54.651Z,96094.45
2018-04-07T14:45:22.135Z,96097.93
2018-04-07T14:47:49.630Z,96097.43
2018-04-07T14:50:17.187Z,96099.88
2018-04-07T14:52:44.749Z,96105.94
2018-04-07T14:55:12.254Z,96095.95
2018-04-07T14:57:39.737Z,96087.36
2018-04-07T15:00:07.231Z,96094.48
2018-04-07T15:02:34.772Z,96104.59
2018-04-07T15:05:02.345Z,96104.20
2018-04-07T15:07:29.877Z,96095.78
2018-04-07T15:09:57.419Z,96100.88
2018-04-07T15:12:24.963Z,96103.04
2018-04-07T15:14:52.486Z,96097.70
2018-04-07T15:17:20.023Z,96104.13
2018-04-07T15:19:47.550Z,96111.39
2018-04-07T15:22:15.053Z,96111.64
2018-04-07T15:24:42.610Z,96111.45
2018-04-07T15:27:10.161Z,96111.13
2018-04-07T15:29:37.707Z,96119.55
2018-04-07T15:32:05.244Z,96114.97
2018-04-07T15:34:32.808Z,96113.31
2018-04-07T15:37:00.338Z,96125.56
2018-04-07T15:39:27.905Z,96122.16
2018-04-07T15:41:55.934Z,96123.56
2018-04-07T15:44:23.503Z,96120.53
2018-04-07T15:46:51.049Z,96121.26
2018-04-07T15:49:18.577Z,96120.20
2018-04-07T15:51:46.106Z,96117.66
2018-04-07T15:54:13.645Z,96113.85
2018-04-07T15:56:41.230Z,96115.67
2018-04-07T15:59:08.753Z,96118.22
2018-04-07T16:01:36.296Z,96124.22
2018-04-07T16:04:03.887Z,96119.20
2018-04-07T16:06:31.496Z,96120.42
2018-04-07T16:08:59.098Z,96113.16
2018-04-07T16:11:26.649Z,96128.20
2018-04-07T16:13:54.172Z,96114.47
2018-04-07T16:16:21.762Z,96117.66
2018-04-07T16:18:49.290Z,96116.08
2018-04-07T16:21:16.866Z,96118.11
2018-04-07T16:23:44.393Z,96122.93
2018-04-07T16:26:11.914Z,96119.30
2018-04-07T16:28:39.456Z,96123.63
2018-04-07T16:31:07.014Z,96119.06
2018-04-07T16:33:34.540Z,96124.33
2018-04-07T16:36:02.083Z,96127.88
2018-04-07T16:38:29.758Z,96125.20
2018-04-07T16:40:57.258Z,96127.04
2018-04-07T16:43:24.766Z,96133.67
2018-04-07T16:45:52.272Z,96131.89
2018-04-07T16:48:19.841Z,96134.81
2018-04-07T16:50:47.371Z,96135.27
2018-04-07T16:53:14.866Z,96143.45
2018-04-07T16:55:42.441Z,96150.88
2018-04-07T16:58:09.978Z,96145.84
2018-04-07T17:00:37.504Z,96147.02
2018-04-07T17:03:05.052Z,96143.27
2018-04-07T17:05:32.594Z,96147.56
2018-04-07T17:08:00.157Z,96148.31
2018-04-07T17:10:27.638Z,96151.23
2018-04-07T17:12:55.157Z,96147.47
2018-04-07T17:15:22.664Z,96149.80
2018-04-07T17:17:50.206Z,96154.19
2018-04-07T17:20:17.758Z,96163.15
2018-04-07T17:22:45.334Z,96157.91
2018-04-07T17:25:12.874Z,96166.19
2018-04-07T17:27:40.367Z,96162.11
2018-04-07T17:30:07.863Z,96165.59
2018-04-07T17:32:35.422Z,96160.02
2018-04-07T17:35:02.910Z,96167.06
2018-04-07T17:37:30.428Z,96164.27
2018-04-07T17:39:57.911Z,96164.21
2018-04-07T17:42:25.458Z,96166.16
2018-04-07T17:44:52.958Z,96169.92
2018-04-07T17:47:20.545Z,96171.55
2018-04-07T17:49:48.049Z,96175.14
2018-04-07T17:52:15.590Z,96175.25
2018-04-07T17:54:43.082Z,96180.55
2018-04-07T17:57:10.562Z,96181.56
2018-04-07T17:59:38.099Z,96183.01
2018-04-07T18:02:05.632Z,96185.86
2018-04-07T18:04:33.582Z,96187.83
2018-04-07T18:07:01.158Z,96190.54
2018-04-07T18:09:28.709Z,96188.05
2018-04-07T18:11:56.249Z,96183.32
2018-04-07T18:14:23.803Z,96197.16
2018-04-07T18:16:51.365Z,96193.23
2018-04-07T18:19:18.939Z,96196.64
2018-04-07T18:21:46.443Z,96195.33
2018-04-07T18:24:13.948Z,96205.16
2018-04-07T18:26:41.463Z,96198.15
2018-04-07T18:29:09.022Z,96201.55
2018-04-07T18:31:36.524Z,96204.24
2018-04-07T18:34:04.034Z,96206.69
2018-04-07T18:36:31.568Z,96209.75
2018-04-07T18:38:59.084Z,96211.28
2018-04-07T18:41:26.594Z,96216.42
2018-04-07T18:43:54.122Z,96215.96
2018-04-07T18:46:21.666Z,96210.75
2018-04-07T18:48:49.228Z,96217.84
2018-04-07T18:51:16.786Z,96210.39
2018-04-07T18:53:44.396Z,96225.07
2018-04-07T18:56:11.932Z,96221.88
2018-04-07T18:58:39.490Z,96226.25
2018-04-07T19:01:07.090Z,96225.29
2018-04-07T19:03:34.644Z,96231.84
2018-04-07T19:06:02.265Z,96229.59
2018-04-07T19:08:29.848Z,96224.75
2018-04-07T19:10:57.412Z,96225.91
2018-04-07T19:13:24.943Z,96217.70
2018-04-07T19:15:52.506Z,96217.45
2018-04-07T19:18:20.058Z,96214.88
2018-04-07T19:20:47.615Z,96216.73
2018-04-07T19:23:15.179Z,96225.58
2018-04-07T19:25:42.723Z,96227.80
2018-04-07T19:28:10.258Z,96228.78
2018-04-07T19:30:37.772Z,96225.23
2018-04-07T19:33:05.313Z,96219.59
2018-04-07T19:35:32.865Z,96215.50
2018-04-07T19:38:00.420Z,96212.72
2018-04-07T19:40:27.949Z,96215.08
2018-04-07T19:42:55.468Z,96216.77
2018-04-07T19:45:22.947Z,96218.19
2018-04-07T19:47:50.422Z,96213.61
2018-04-07T19:50:17.943Z,96216.78
2018-04-07T19:52:45.494Z,96212.28
2018-04-07T19:55:13.063Z,96214.39
2018-04-07T19:57:40.622Z,96207.56
2018-04-07T20:00:08.195Z,96207.48
2018-04-07T20:02:35.776Z,96197.19
2018-04-07T20:05:03.692Z,96196.67
2018-04-07T20:07:31.282Z,96198.37
2018-04-07T20:09:58.841Z,96194.23
2018-04-07T20:12:26.399Z,96188.86
2018-04-07T20:14:53.984Z,96191.02
2018-04-07T20:17:21.493Z,96180.52
2018-04-07T20:19:49.079Z,96182.17
2018-04-07T20:22:16.636Z,96190.97
2018-04-07T20:24:44.176Z,96185.59
2018-04-07T20:27:11.754Z,96191.69
2018-04-07T20:29:39.318Z,96187.26
2018-04-07T20:32:06.874Z,96192.44
2018-04-07T20:34:34.489Z,96187.33
2018-04-07T20:37:02.066Z,96185.64
2018-04-07T20:39:29.668Z,96188.42
2018-04-07T20:42:08.921Z,96181.84
2018-04-07T20:44:36.529Z,96167.37
2018-04-07T20:47:04.138Z,96164.03
2018-04-07T20:49:31.693Z,96171.70
2018-04-07T20:51:59.280Z,96160.16
2018-04-07T20:54:26.867Z,96166.16
2018-04-07T20:56:54.389Z,96160.98
2018-04-07T20:59:21.981Z,96163.94
2018-04-07T21:01:49.565Z,96158.67
2018-04-07T21:04:17.148Z,96149.58
2018-04-07T21:06:44.683Z,96145.22
2018-04-07T21:09:12.818Z,96136.84
2018-04-07T21:11:40.371Z,96142.73
2018-04-07T21:14:07.907Z,96145.71
2018-04-07T21:16:35.453Z,96144.50
2018-04-07T21:19:03.094Z,96146.94
2018-04-07T21:21:30.676Z,96141.16
2018-04-07T21:23:58.239Z,96141.33
2018-04-07T21:26:25.920Z,96134.23
2018-04-07T21:28:53.451Z,96121.31
2018-04-07T21:31:21.552Z,96112.81
2018-04-07T21:33:49.314Z,96119.48
2018-04-07T21:36:16.849Z,96112.53
2018-04-07T21:38:44.428Z,96107.31
2018-04-07T21:41:12.536Z,96107.42
2018-04-07T21:43:40.071Z,96110.05
2018-04-07T21:46:07.588Z,96111.41
2018-04-07T21:48:35.116Z,96106.25
2018-04-07T21:51:02.615Z,96106.29
2018-04-07T21:53:30.125Z,96101.97
2018-04-07T21:55:57.689Z,96100.05
2018-04-07T21:58:25.522Z,96097.70
2018-04-07T22:00:53.007Z,96095.52
2018-04-07T22:03:20.566Z,96083.17
2018-04-07T22:05:51.524Z,96086.50
2018-04-07T22:08:19.135Z,96090.30
2018-04-07T22:10:48.605Z,96087.66
2018-04-07T22:13:16.310Z,96084.87
2018-04-07T22:15:43.867Z,96086.88
2018-04-07T22:18:11.569Z,96085.04
2018-04-07T22:20:40.105Z,96078.33
2018-04-07T22:23:08.090Z,96079.57
2018-04-07T22:25:35.807Z,96074.08
2018-04-07T22:28:03.431Z,96071.77
2018-04-07T22:30:31.150Z,96079.52
2018-04-07T22:32:58.749Z,96075.77
2018-04-07T22:35:26.345Z,96073.42
2018-04-07T22:37:54.136Z,96074.94
2018-04-07T22:40:21.886Z,96066.33
2018-04-07T22:42:49.442Z,96068.12
2018-04-07T22:45:17.005Z,96067.73
2018-04-07T22:47:46.199Z,96063.67
2018-04-07T22:50:13.750Z,96061.23
2018-04-07T22:52:42.333Z,96052.11
2018-04-07T22:55:10.639Z,96054.23
2018-04-07T22:57:39.771Z,96049.44
2018-04-07T23:00:07.385Z,96050.58
2018-04-07T23:02:34.986Z,96045.83
2018-04-07T23:05:02.551Z,96042.86
2018-04-07T23:07:32.381Z,96037.81
2018-04-07T23:09:59.963Z,96035.38
2018-04-07T23:12:27.525Z,96031.75
2018-04-07T23:14:55.084Z,96037.08
2018-04-07T23:17:22.940Z,96032.30
2018-04-07T23:19:50.490Z,96030.77
2018-04-07T23:22:18.054Z,96019.82
2018-04-07T23:24:45.657Z,96017.31
2018-04-07T23:27:13.782Z,96001.27
2018-04-07T23:29:41.356Z,96005.53
2018-04-07T23:32:08.903Z,96003.95
2018-04-07T23:34:36.441Z,96004.38
2018-04-07T23:37:04.278Z,96009.65
2018-04-07T23:39:32.029Z,96000.55
2018-04-07T23:41:59.748Z,96008.27
2018-04-07T23:44:27.294Z,96000.37
2018-04-07T23:46:54.853Z,96001.20
2018-04-07T23:49:22.438Z,95991.25
2018-04-07T23:51:51.709Z,95996.31
2018-04-07T23:54:19.272Z,95983.95
2018-04-07T23:56:46.857Z,95980.08
2018-04-07T23:59:14.446Z,95978.21
